Time;durP1;ratioP1;P1;durP2;ratioP2;P2;SDS_P1;SDS_P2;PMS_P1;PMS_P2;Temp;Humidity;BMP_temperature;BMP_pressure;BME280_temperature;BME280_humidity;BME280_pressure;Samples;Min_cycle;Max_cycle;Signal;HPM_P1;HPM_P2
2022/02/16 00:01:42;;;;;;;;;;;18.90;39.20;;;;;;5096862;28;19913;-65
2022/02/16 00:04:07;;;;;;;;;;;18.90;39.20;;;;;;5096517;28;19908;-65
2022/02/16 00:06:33;;;;;;;;;;;18.90;39.30;;;;;;5078217;28;20321;-64
2022/02/16 00:08:58;;;;;;;;;;;18.90;39.20;;;;;;5078233;28;19908;-64
2022/02/16 00:11:23;;;;;;;;;;;18.90;39.30;;;;;;5078043;28;19908;-64
2022/02/16 00:13:49;;;;;;;;;;;18.90;39.30;;;;;;5096394;28;19915;-64
2022/02/16 00:16:14;;;;;;;;;;;18.90;39.30;;;;;;5096262;28;20329;-64
2022/02/16 00:18:40;;;;;;;;;;;18.90;39.30;;;;;;5096377;28;19970;-64
2022/02/16 00:21:07;;;;;;;;;;;18.90;39.30;;;;;;5096070;28;20366;-64
2022/02/16 00:23:32;;;;;;;;;;;18.90;39.20;;;;;;5096125;28;19908;-64
2022/02/16 00:25:59;;;;;;;;;;;18.90;39.30;;;;;;5095958;28;20075;-64
2022/02/16 00:28:26;;;;;;;;;;;18.90;39.30;;;;;;5096070;28;20359;-64
2022/02/16 00:30:51;;;;;;;;;;;18.90;39.30;;;;;;5096194;28;20008;-64
2022/02/16 00:33:17;;;;;;;;;;;18.90;39.30;;;;;;5095877;28;19966;-64
2022/02/16 00:35:42;;;;;;;;;;;18.90;39.40;;;;;;5095839;28;20264;-64
2022/02/16 00:38:07;;;;;;;;;;;18.80;39.30;;;;;;5095756;28;19908;-64
2022/02/16 00:40:33;;;;;;;;;;;18.90;39.30;;;;;;5095914;28;19920;-64
2022/02/16 00:42:58;;;;;;;;;;;18.80;39.30;;;;;;5096100;28;19915;-64
2022/02/16 00:45:24;;;;;;;;;;;18.90;39.40;;;;;;5095647;28;19991;-64
2022/02/16 00:47:49;;;;;;;;;;;18.80;39.40;;;;;;5077550;28;19947;-64
2022/02/16 00:50:15;;;;;;;;;;;18.90;39.40;;;;;;5077383;28;19917;-64
2022/02/16 00:52:40;;;;;;;;;;;18.80;39.40;;;;;;5077394;28;19955;-64
2022/02/16 00:55:06;;;;;;;;;;;18.90;39.40;;;;;;5095637;28;19954;-64
2022/02/16 00:57:32;;;;;;;;;;;18.80;39.40;;;;;;5095186;28;19915;-64
2022/02/16 00:59:58;;;;;;;;;;;18.80;39.40;;;;;;5095284;28;20260;-65
2022/02/16 01:02:24;;;;;;;;;;;18.90;39.40;;;;;;5095280;28;20267;-64
2022/02/16 01:04:50;;;;;;;;;;;18.90;39.40;;;;;;5095310;28;19969;-64
2022/02/16 01:07:15;;;;;;;;;;;18.80;39.40;;;;;;5095210;28;19908;-65
2022/02/16 01:09:41;;;;;;;;;;;18.80;39.40;;;;;;5095440;28;20113;-65
2022/02/16 01:12:07;;;;;;;;;;;18.80;39.50;;;;;;5095060;28;20272;-63
2022/02/16 01:14:32;;;;;;;;;;;18.80;39.50;;;;;;5094943;28;19996;-63
2022/02/16 01:16:58;;;;;;;;;;;18.80;39.50;;;;;;5095148;28;19908;-64
2022/02/16 01:19:23;;;;;;;;;;;18.80;39.50;;;;;;5095199;28;20458;-63
2022/02/16 01:21:49;;;;;;;;;;;18.90;39.50;;;;;;5094879;28;20351;-64
2022/02/16 01:24:14;;;;;;;;;;;18.80;39.50;;;;;;5094823;28;19908;-64
2022/02/16 01:26:39;;;;;;;;;;;18.80;39.50;;;;;;5094987;28;19908;-64
2022/02/16 01:29:05;;;;;;;;;;;18.80;39.50;;;;;;5094672;28;20370;-63
2022/02/16 01:31:30;;;;;;;;;;;18.80;39.60;;;;;;5094878;28;19912;-64
2022/02/16 01:33:56;;;;;;;;;;;18.80;39.50;;;;;;5094650;28;19908;-63
2022/02/16 01:36:21;;;;;;;;;;;18.80;39.60;;;;;;5094754;28;19959;-63
2022/02/16 01:38:47;;;;;;;;;;;18.80;39.50;;;;;;5094372;28;19929;-64
2022/02/16 01:41:15;;;;;;;;;;;18.80;39.60;;;;;;5076184;28;19957;-63
2022/02/16 01:43:48;;;;;;;;;;;18.80;39.60;;;;;;5094392;28;20050;-64
2022/02/16 01:46:14;;;;;;;;;;;18.80;39.60;;;;;;5094211;28;20400;-64
2022/02/16 01:48:39;;;;;;;;;;;18.80;39.60;;;;;;5094548;28;19959;-64
2022/02/16 01:51:05;;;;;;;;;;;18.80;39.60;;;;;;5094355;28;19958;-63
2022/02/16 01:53:31;;;;;;;;;;;18.80;39.60;;;;;;5094172;28;19908;-64
2022/02/16 01:55:56;;;;;;;;;;;18.80;39.60;;;;;;5094193;28;19915;-64
2022/02/16 01:58:22;;;;;;;;;;;18.80;39.70;;;;;;5094280;28;19915;-63
2022/02/16 02:00:48;;;;;;;;;;;18.80;39.60;;;;;;5094212;28;19958;-64
2022/02/16 02:03:13;;;;;;;;;;;18.80;39.70;;;;;;5094162;28;20244;-63
2022/02/16 02:05:42;;;;;;;;;;;18.80;39.70;;;;;;5093830;28;20033;-64
2022/02/16 02:08:09;;;;;;;;;;;18.80;39.70;;;;;;5094049;28;19911;-63
2022/02/16 02:10:35;;;;;;;;;;;18.80;39.70;;;;;;5093742;28;19991;-64
2022/02/16 02:13:00;;;;;;;;;;;18.80;39.70;;;;;;5075726;28;20007;-64
2022/02/16 02:15:26;;;;;;;;;;;18.80;39.70;;;;;;5093746;28;19915;-64
2022/02/16 02:17:51;;;;;;;;;;;18.80;39.70;;;;;;5093943;28;19908;-64
2022/02/16 02:20:21;;;;;;;;;;;18.80;39.80;;;;;;5093773;28;20366;-63
2022/02/16 02:22:46;;;;;;;;;;;18.70;39.80;;;;;;5093682;28;19951;-64
2022/02/16 02:25:13;;;;;;;;;;;18.80;39.70;;;;;;5093642;28;19933;-64
2022/02/16 02:27:38;;;;;;;;;;;18.80;39.80;;;;;;5093916;28;19908;-64
2022/02/16 02:30:04;;;;;;;;;;;18.70;39.80;;;;;;5093515;28;20391;-64
2022/02/16 02:32:29;;;;;;;;;;;18.70;39.80;;;;;;5093383;28;19908;-65
2022/02/16 02:34:55;;;;;;;;;;;18.80;39.80;;;;;;5093720;28;19916;-64
2022/02/16 02:37:20;;;;;;;;;;;18.70;39.80;;;;;;5093835;28;20374;-64
2022/02/16 02:39:45;;;;;;;;;;;18.80;39.90;;;;;;5093434;28;20248;-64
2022/02/16 02:42:11;;;;;;;;;;;18.70;39.90;;;;;;5075233;28;20290;-64
2022/02/16 02:44:36;;;;;;;;;;;18.70;39.90;;;;;;5093231;28;20383;-64
2022/02/16 02:47:02;;;;;;;;;;;18.70;39.80;;;;;;5093549;28;19943;-63
2022/02/16 02:49:28;;;;;;;;;;;18.80;39.90;;;;;;5093217;28;20197;-63
2022/02/16 02:51:53;;;;;;;;;;;18.70;39.90;;;;;;5093220;28;19996;-64
2022/02/16 02:54:19;;;;;;;;;;;18.70;39.90;;;;;;5093344;28;19953;-63
2022/02/16 02:56:44;;;;;;;;;;;18.80;39.90;;;;;;5093235;28;19946;-64
2022/02/16 02:59:10;;;;;;;;;;;18.70;39.90;;;;;;5092988;28;19926;-64
2022/02/16 03:01:38;;;;;;;;;;;18.80;39.90;;;;;;5093047;28;19939;-64
2022/02/16 03:04:03;;;;;;;;;;;18.70;39.90;;;;;;5093157;28;19909;-64
2022/02/16 03:06:29;;;;;;;;;;;18.80;39.90;;;;;;5093105;28;19908;-65
2022/02/16 03:08:54;;;;;;;;;;;18.70;39.90;;;;;;5093012;28;19916;-64
2022/02/16 03:11:19;;;;;;;;;;;18.70;39.90;;;;;;5093071;28;19908;-64
2022/02/16 03:13:46;;;;;;;;;;;18.70;39.90;;;;;;5093086;28;19915;-64
2022/02/16 03:16:12;;;;;;;;;;;18.70;40.00;;;;;;5093062;28;19908;-64
2022/02/16 03:18:37;;;;;;;;;;;18.70;40.00;;;;;;5093173;28;20386;-63
2022/02/16 03:21:03;;;;;;;;;;;18.70;40.00;;;;;;5076337;28;20447;-64
2022/02/16 03:23:28;;;;;;;;;;;18.80;40.00;;;;;;5097195;28;19961;-63
2022/02/16 03:25:53;;;;;;;;;;;18.70;40.00;;;;;;5097003;28;19915;-64
2022/02/16 03:28:19;;;;;;;;;;;18.70;40.00;;;;;;5096982;28;19908;-64
2022/02/16 03:30:44;;;;;;;;;;;18.70;40.10;;;;;;5096857;28;19915;-63
2022/02/16 03:33:10;;;;;;;;;;;18.70;40.00;;;;;;5097169;28;20397;-64
2022/02/16 03:35:35;;;;;;;;;;;18.80;40.00;;;;;;5096916;28;19908;-63
2022/02/16 03:38:02;;;;;;;;;;;18.70;40.10;;;;;;5096948;28;19908;-64
2022/02/16 03:40:30;;;;;;;;;;;18.70;40.10;;;;;;5096977;28;20299;-64
2022/02/16 03:42:55;;;;;;;;;;;18.70;40.10;;;;;;5096647;28;20444;-64
2022/02/16 03:45:21;;;;;;;;;;;18.70;40.10;;;;;;5096951;28;19908;-65
2022/02/16 03:47:46;;;;;;;;;;;18.70;40.10;;;;;;5096860;28;19908;-64
2022/02/16 03:50:12;;;;;;;;;;;18.70;40.10;;;;;;5096789;28;19908;-64
2022/02/16 03:52:37;;;;;;;;;;;18.70;40.10;;;;;;5096864;28;19918;-64
2022/02/16 03:55:03;;;;;;;;;;;18.70;40.10;;;;;;5096745;28;20424;-64
2022/02/16 03:57:29;;;;;;;;;;;18.70;40.10;;;;;;5096449;28;19908;-63
2022/02/16 03:59:54;;;;;;;;;;;18.70;40.10;;;;;;5096092;28;19926;-63
2022/02/16 04:02:19;;;;;;;;;;;18.70;40.20;;;;;;5096810;28;19908;-64
2022/02/16 04:04:45;;;;;;;;;;;18.70;40.20;;;;;;5096269;28;19908;-64
2022/02/16 04:07:10;;;;;;;;;;;18.70;40.20;;;;;;5096336;28;19915;-63
2022/02/16 04:09:36;;;;;;;;;;;18.70;40.20;;;;;;5096150;28;19995;-64
2022/02/16 04:12:01;;;;;;;;;;;18.70;40.20;;;;;;5096322;28;20367;-64
2022/02/16 04:14:27;;;;;;;;;;;18.70;40.20;;;;;;5096073;28;19919;-63
2022/02/16 04:16:52;;;;;;;;;;;18.70;40.20;;;;;;5096413;28;19934;-64
2022/02/16 04:19:17;;;;;;;;;;;18.70;40.20;;;;;;5096218;28;19912;-64
2022/02/16 04:21:43;;;;;;;;;;;18.70;40.30;;;;;;5096203;28;19965;-64
2022/02/16 04:24:08;;;;;;;;;;;18.70;40.30;;;;;;5095965;28;19915;-64
2022/02/16 04:26:34;;;;;;;;;;;18.70;40.20;;;;;;5096234;28;19930;-64
2022/02/16 04:28:59;;;;;;;;;;;18.70;40.30;;;;;;5095826;28;20358;-63
2022/02/16 04:31:25;;;;;;;;;;;18.70;40.30;;;;;;5095284;28;20276;-64
2022/02/16 04:33:50;;;;;;;;;;;18.70;40.30;;;;;;5077574;28;19915;-64
2022/02/16 04:36:25;;;;;;;;;;;18.70;40.30;;;;;;5095954;28;19946;-63
2022/02/16 04:38:57;;;;;;;;;;;18.70;40.30;;;;;;5095635;28;19908;-64
2022/02/16 04:41:24;;;;;;;;;;;18.70;40.30;;;;;;5095938;28;19946;-64
2022/02/16 04:43:49;;;;;;;;;;;18.70;40.40;;;;;;5095572;28;19995;-64
2022/02/16 04:46:15;;;;;;;;;;;18.70;40.40;;;;;;5077460;28;20235;-64
2022/02/16 04:48:41;;;;;;;;;;;18.70;40.40;;;;;;5095520;28;19909;-63
2022/02/16 04:51:06;;;;;;;;;;;18.70;40.30;;;;;;5095547;28;19954;-63
2022/02/16 04:53:34;;;;;;;;;;;18.70;40.40;;;;;;5095618;28;20356;-64
2022/02/16 04:56:01;;;;;;;;;;;18.70;40.40;;;;;;5095345;28;19916;-64
2022/02/16 04:58:26;;;;;;;;;;;18.70;40.40;;;;;;5094979;28;19912;-63
2022/02/16 05:00:51;;;;;;;;;;;18.70;40.40;;;;;;5095435;28;20006;-64
2022/02/16 05:03:17;;;;;;;;;;;18.70;40.40;;;;;;5095358;28;20303;-63
2022/02/16 05:05:42;;;;;;;;;;;18.70;40.50;;;;;;5095175;28;19915;-64
2022/02/16 05:08:08;;;;;;;;;;;18.70;40.40;;;;;;5095217;28;19931;-64
2022/02/16 05:10:34;;;;;;;;;;;18.70;40.50;;;;;;5095564;28;19912;-64
2022/02/16 05:12:59;;;;;;;;;;;18.70;40.50;;;;;;5095025;28;19912;-64
2022/02/16 05:15:25;;;;;;;;;;;18.70;40.50;;;;;;5095300;28;19908;-64
2022/02/16 05:17:50;;;;;;;;;;;18.70;40.50;;;;;;5095172;28;20302;-64
2022/02/16 05:20:16;;;;;;;;;;;18.70;40.50;;;;;;5095089;28;19991;-64
2022/02/16 05:22:41;;;;;;;;;;;18.80;40.40;;;;;;5094826;28;19995;-64
2022/02/16 05:25:07;;;;;;;;;;;18.80;40.40;;;;;;5094848;28;19912;-64
2022/02/16 05:27:32;;;;;;;;;;;18.80;40.50;;;;;;5076589;28;19909;-64
2022/02/16 05:29:58;;;;;;;;;;;18.80;40.40;;;;;;5095025;28;19916;-64
2022/02/16 05:32:23;;;;;;;;;;;18.80;40.40;;;;;;5094695;28;19909;-63
2022/02/16 05:34:48;;;;;;;;;;;18.80;40.40;;;;;;5094918;28;19908;-63
2022/02/16 05:37:14;;;;;;;;;;;18.90;40.40;;;;;;5094635;28;20406;-65
2022/02/16 05:39:39;;;;;;;;;;;18.90;40.40;;;;;;5094728;28;20007;-64
2022/02/16 05:42:05;;;;;;;;;;;18.80;40.50;;;;;;5094419;28;19915;-63
2022/02/16 05:44:30;;;;;;;;;;;18.90;40.50;;;;;;5093579;28;19908;-64
2022/02/16 05:46:56;;;;;;;;;;;18.90;40.50;;;;;;5094373;28;19916;-63
2022/02/16 05:49:21;;;;;;;;;;;18.90;40.50;;;;;;5094560;28;19962;-64
2022/02/16 05:51:47;;;;;;;;;;;18.90;40.40;;;;;;5094272;28;19919;-64
2022/02/16 05:54:12;;;;;;;;;;;18.90;40.50;;;;;;5094629;28;20243;-64
2022/02/16 05:56:38;;;;;;;;;;;18.90;40.40;;;;;;5094093;28;19915;-63
2022/02/16 05:59:03;;;;;;;;;;;19.00;40.50;;;;;;5093976;28;20383;-64
2022/02/16 06:01:29;;;;;;;;;;;18.90;40.50;;;;;;5093834;28;19915;-64
2022/02/16 06:03:54;;;;;;;;;;;19.00;40.50;;;;;;5093967;28;19908;-65
2022/02/16 06:06:19;;;;;;;;;;;19.00;40.50;;;;;;5094151;28;19908;-63
2022/02/16 06:08:45;;;;;;;;;;;19.00;40.50;;;;;;5093966;28;20378;-64
2022/02/16 06:11:11;;;;;;;;;;;19.00;40.50;;;;;;5093962;28;19908;-64
2022/02/16 06:13:37;;;;;;;;;;;19.00;40.50;;;;;;5094198;28;19931;-64
2022/02/16 06:16:03;;;;;;;;;;;19.00;40.50;;;;;;5094160;28;19908;-63
2022/02/16 06:18:28;;;;;;;;;;;19.00;40.50;;;;;;5093879;28;19912;-65
2022/02/16 06:20:54;;;;;;;;;;;19.00;40.50;;;;;;5093814;28;19960;-65
2022/02/16 06:23:20;;;;;;;;;;;19.00;40.60;;;;;;5093829;28;19908;-64
2022/02/16 06:25:45;;;;;;;;;;;19.00;40.50;;;;;;5093498;28;19977;-63
2022/02/16 06:28:11;;;;;;;;;;;19.00;40.50;;;;;;5093642;28;19931;-64
2022/02/16 06:30:36;;;;;;;;;;;19.10;40.60;;;;;;5093577;28;19915;-64
2022/02/16 06:33:02;;;;;;;;;;;19.10;40.50;;;;;;5093495;28;19999;-64
2022/02/16 06:35:27;;;;;;;;;;;19.00;40.50;;;;;;5093492;28;19955;-64
2022/02/16 06:37:53;;;;;;;;;;;19.00;40.60;;;;;;5093404;28;19908;-64
2022/02/16 06:40:18;;;;;;;;;;;19.00;40.60;;;;;;5093545;28;19923;-64
2022/02/16 06:42:44;;;;;;;;;;;19.10;40.60;;;;;;5093517;28;19914;-64
2022/02/16 06:45:09;;;;;;;;;;;19.10;40.60;;;;;;5093491;28;19945;-65
2022/02/16 06:47:35;;;;;;;;;;;19.10;40.60;;;;;;5093382;28;19912;-63
2022/02/16 06:50:01;;;;;;;;;;;19.10;40.60;;;;;;5093294;28;19916;-64
2022/02/16 06:52:26;;;;;;;;;;;19.10;40.60;;;;;;5093205;28;19908;-64
2022/02/16 06:54:52;;;;;;;;;;;19.10;40.70;;;;;;5093043;28;20022;-64
2022/02/16 06:57:17;;;;;;;;;;;19.10;40.70;;;;;;5093325;28;19990;-63
2022/02/16 06:59:43;;;;;;;;;;;19.10;40.60;;;;;;5092980;28;19956;-63
2022/02/16 07:02:09;;;;;;;;;;;19.10;40.60;;;;;;5093012;28;19908;-63
2022/02/16 07:04:34;;;;;;;;;;;19.10;40.70;;;;;;5093412;28;19946;-64
2022/02/16 07:07:00;;;;;;;;;;;19.10;40.70;;;;;;5093164;28;19908;-64
2022/02/16 07:09:25;;;;;;;;;;;19.10;40.70;;;;;;5092963;28;19947;-63
2022/02/16 07:11:52;;;;;;;;;;;19.20;40.70;;;;;;5093005;28;19952;-63
2022/02/16 07:14:21;;;;;;;;;;;19.10;40.70;;;;;;5093283;28;19951;-63
2022/02/16 07:16:47;;;;;;;;;;;19.10;40.70;;;;;;5093126;28;20327;-63
2022/02/16 07:19:12;;;;;;;;;;;19.20;40.70;;;;;;5093005;28;19964;-64
2022/02/16 07:21:38;;;;;;;;;;;19.10;40.70;;;;;;5093026;28;20003;-64
2022/02/16 07:24:03;;;;;;;;;;;19.10;40.70;;;;;;5092973;28;19999;-63
2022/02/16 07:26:29;;;;;;;;;;;19.10;40.70;;;;;;5092946;28;20298;-63
2022/02/16 07:28:54;;;;;;;;;;;19.20;40.70;;;;;;5092906;28;19944;-63
2022/02/16 07:31:20;;;;;;;;;;;19.10;40.70;;;;;;5093295;28;19991;-63
2022/02/16 07:33:46;;;;;;;;;;;19.20;40.80;;;;;;5092886;28;19908;-63
2022/02/16 07:36:11;;;;;;;;;;;19.20;40.80;;;;;;5092966;28;19909;-63
2022/02/16 07:38:37;;;;;;;;;;;19.20;40.80;;;;;;5092593;28;19954;-63
2022/02/16 07:41:02;;;;;;;;;;;19.20;40.80;;;;;;5092620;28;19958;-63
2022/02/16 07:43:28;;;;;;;;;;;19.20;40.80;;;;;;5092778;28;20335;-64
2022/02/16 07:45:54;;;;;;;;;;;19.20;40.80;;;;;;5092960;28;20041;-63
2022/02/16 07:48:19;;;;;;;;;;;19.20;40.80;;;;;;5092749;28;20359;-63
2022/02/16 07:50:47;;;;;;;;;;;19.20;40.70;;;;;;5092569;28;20313;-63
2022/02/16 07:53:12;;;;;;;;;;;19.20;40.80;;;;;;5092459;28;19915;-64
2022/02/16 07:55:38;;;;;;;;;;;19.20;40.80;;;;;;5092709;28;19908;-64
2022/02/16 07:58:04;;;;;;;;;;;19.20;40.80;;;;;;5089591;28;19916;-63
2022/02/16 08:00:31;;;;;;;;;;;19.20;41.10;;;;;;5078902;28;20011;-64
2022/02/16 08:02:57;;;;;;;;;;;19.30;40.80;;;;;;5080607;28;19912;-63
2022/02/16 08:05:22;;;;;;;;;;;18.60;44.90;;;;;;5080830;28;20006;-63
2022/02/16 08:07:48;;;;;;;;;;;17.80;48.30;;;;;;5086345;28;19924;-63
2022/02/16 08:10:13;;;;;;;;;;;17.40;50.10;;;;;;5095165;28;20504;-64
2022/02/16 08:12:42;;;;;;;;;;;17.10;51.40;;;;;;5080316;28;19912;-66
2022/02/16 08:15:08;;;;;;;;;;;17.00;52.10;;;;;;5095426;28;20065;-65
2022/02/16 08:17:33;;;;;;;;;;;16.80;52.90;;;;;;5092197;28;19956;-62
2022/02/16 08:19:59;;;;;;;;;;;16.70;53.80;;;;;;5090423;28;19924;-64
2022/02/16 08:22:24;;;;;;;;;;;16.70;54.20;;;;;;5084777;28;20273;-64
2022/02/16 08:24:49;;;;;;;;;;;16.40;55.30;;;;;;5092863;28;20287;-65
2022/02/16 08:27:15;;;;;;;;;;;16.40;55.80;;;;;;5095705;28;19942;-65
2022/02/16 08:29:40;;;;;;;;;;;16.50;55.60;;;;;;5094925;28;20343;-64
2022/02/16 08:32:06;;;;;;;;;;;16.50;55.50;;;;;;5095584;28;19948;-64
2022/02/16 08:34:31;;;;;;;;;;;16.40;56.50;;;;;;5095301;28;19946;-64
2022/02/16 08:36:57;;;;;;;;;;;16.30;56.50;;;;;;5090561;28;19912;-64
2022/02/16 08:39:25;;;;;;;;;;;16.40;56.80;;;;;;5094676;28;19912;-64
2022/02/16 08:41:52;;;;;;;;;;;16.40;57.00;;;;;;5095217;28;19969;-63
2022/02/16 08:44:17;;;;;;;;;;;16.40;56.90;;;;;;5095322;28;20310;-64
2022/02/16 08:46:43;;;;;;;;;;;16.30;57.20;;;;;;5095447;28;19954;-63
2022/02/16 08:49:08;;;;;;;;;;;16.30;57.30;;;;;;5094499;28;19912;-64
2022/02/16 08:51:34;;;;;;;;;;;16.20;57.80;;;;;;5094908;28;19912;-63
2022/02/16 08:53:59;;;;;;;;;;;16.20;58.00;;;;;;5095123;28;19915;-64
2022/02/16 08:56:25;;;;;;;;;;;16.30;57.80;;;;;;5077002;28;19931;-61
2022/02/16 08:58:51;;;;;;;;;;;16.20;58.60;;;;;;5095086;28;19954;-63
2022/02/16 09:01:16;;;;;;;;;;;16.50;56.70;;;;;;5094393;28;19955;-64
2022/02/16 09:03:42;;;;;;;;;;;17.10;53.80;;;;;;5094021;28;19912;-64
2022/02/16 09:06:07;;;;;;;;;;;17.50;50.90;;;;;;5092942;28;19995;-63
2022/02/16 09:08:33;;;;;;;;;;;17.80;49.90;;;;;;5093300;28;19915;-64
2022/02/16 09:10:58;;;;;;;;;;;18.00;49.20;;;;;;5074885;28;20045;-64
2022/02/16 09:13:24;;;;;;;;;;;18.20;48.80;;;;;;5074534;28;19909;-63
2022/02/16 09:15:49;;;;;;;;;;;18.30;48.50;;;;;;5076855;28;20402;-64
2022/02/16 09:18:17;;;;;;;;;;;18.40;48.20;;;;;;5074250;28;19953;-63
2022/02/16 09:20:46;;;;;;;;;;;18.40;48.10;;;;;;5074590;28;20007;-64
2022/02/16 09:23:16;;;;;;;;;;;18.50;47.90;;;;;;5074156;28;20004;-64
2022/02/16 09:25:41;;;;;;;;;;;18.60;47.70;;;;;;5075259;28;19919;-64
2022/02/16 09:28:07;;;;;;;;;;;18.60;47.40;;;;;;5075078;28;19999;-65
2022/02/16 09:30:32;;;;;;;;;;;18.60;47.40;;;;;;5074084;28;19987;-63
2022/02/16 09:32:58;;;;;;;;;;;18.80;47.40;;;;;;5073880;28;19916;-63
2022/02/16 09:35:23;;;;;;;;;;;18.80;47.30;;;;;;5081668;28;20371;-62
2022/02/16 09:37:49;;;;;;;;;;;18.80;47.00;;;;;;5093498;28;19912;-63
2022/02/16 09:40:15;;;;;;;;;;;18.80;47.00;;;;;;5078115;28;19921;-63
2022/02/16 09:42:41;;;;;;;;;;;18.90;46.90;;;;;;5093054;28;19970;-62
2022/02/16 09:45:09;;;;;;;;;;;18.90;46.80;;;;;;5093630;28;19908;-63
2022/02/16 09:47:35;;;;;;;;;;;18.90;46.70;;;;;;5092849;28;20399;-65
2022/02/16 09:50:02;;;;;;;;;;;18.90;46.60;;;;;;5093068;28;19908;-65
2022/02/16 09:52:28;;;;;;;;;;;19.00;46.60;;;;;;5084902;28;20027;-64
2022/02/16 09:54:53;;;;;;;;;;;19.00;46.50;;;;;;5080752;28;19999;-64
2022/02/16 09:57:19;;;;;;;;;;;19.00;46.40;;;;;;5093029;28;19919;-65
2022/02/16 09:59:45;;;;;;;;;;;19.10;46.30;;;;;;5092867;28;19979;-66
2022/02/16 10:02:12;;;;;;;;;;;19.10;46.20;;;;;;5092420;28;20571;-65
2022/02/16 10:04:40;;;;;;;;;;;19.20;46.30;;;;;;5093389;28;20024;-65
2022/02/16 10:07:21;;;;;;;;;;;19.10;46.10;;;;;;5074255;28;19912;-66
2022/02/16 10:09:46;;;;;;;;;;;19.20;46.30;;;;;;5093155;28;19995;-66
2022/02/16 10:12:12;;;;;;;;;;;19.20;46.10;;;;;;5074329;28;20356;-63
2022/02/16 10:14:38;;;;;;;;;;;19.20;46.00;;;;;;5088257;28;19924;-64
2022/02/16 10:17:23;;;;;;;;;;;19.20;46.10;;;;;;5092469;28;19912;-64
2022/02/16 10:19:51;;;;;;;;;;;19.20;46.00;;;;;;5092258;28;19928;-64
2022/02/16 10:22:18;;;;;;;;;;;19.20;45.90;;;;;;5091775;28;19939;-64
2022/02/16 10:24:44;;;;;;;;;;;19.20;45.90;;;;;;5092887;28;20436;-64
2022/02/16 10:27:12;;;;;;;;;;;19.30;45.80;;;;;;5089354;28;20046;-64
2022/02/16 10:29:38;;;;;;;;;;;19.30;45.90;;;;;;5071740;28;19912;-64
2022/02/16 10:32:04;;;;;;;;;;;19.30;45.80;;;;;;5089957;28;19964;-65
2022/02/16 10:34:47;;;;;;;;;;;19.30;45.70;;;;;;5085490;28;19999;-65
2022/02/16 10:37:14;;;;;;;;;;;19.30;45.70;;;;;;5090425;28;19911;-65
2022/02/16 10:39:40;;;;;;;;;;;19.40;45.70;;;;;;5092152;28;19954;-64
2022/02/16 10:42:09;;;;;;;;;;;19.40;45.70;;;;;;5091996;28;20376;-64
2022/02/16 10:44:35;;;;;;;;;;;19.40;45.80;;;;;;5083970;28;20016;-64
2022/02/16 10:47:03;;;;;;;;;;;19.40;45.60;;;;;;5083233;28;19955;-64
2022/02/16 10:49:29;;;;;;;;;;;19.40;45.70;;;;;;5091548;28;20275;-63
2022/02/16 10:52:02;;;;;;;;;;;19.40;45.50;;;;;;5091288;28;19912;-65
2022/02/16 10:54:27;;;;;;;;;;;19.50;45.50;;;;;;5085988;28;19938;-65
2022/02/16 10:56:53;;;;;;;;;;;19.50;45.50;;;;;;5087629;28;20022;-64
2022/02/16 10:59:19;;;;;;;;;;;19.50;45.40;;;;;;5091708;28;20017;-64
2022/02/16 11:01:45;;;;;;;;;;;19.50;45.40;;;;;;5090489;28;19912;-66
2022/02/16 11:04:13;;;;;;;;;;;19.50;45.50;;;;;;5081445;28;19935;-65
2022/02/16 11:06:43;;;;;;;;;;;19.50;45.40;;;;;;5086947;28;19969;-65
2022/02/16 11:09:13;;;;;;;;;;;19.50;45.40;;;;;;5076892;28;20323;-65
2022/02/16 11:11:41;;;;;;;;;;;19.50;45.30;;;;;;5086942;28;19916;-64
2022/02/16 11:14:07;;;;;;;;;;;19.50;45.30;;;;;;5091907;28;20279;-63
2022/02/16 11:16:32;;;;;;;;;;;19.50;45.30;;;;;;5091926;28;19919;-63
2022/02/16 11:19:00;;;;;;;;;;;19.50;45.40;;;;;;5087019;28;19923;-63
2022/02/16 11:21:28;;;;;;;;;;;19.50;45.20;;;;;;5091636;28;20399;-62
2022/02/16 11:23:55;;;;;;;;;;;19.50;45.20;;;;;;5090926;28;20351;-65
2022/02/16 11:26:29;;;;;;;;;;;19.60;45.10;;;;;;5071099;28;20379;-66
2022/02/16 11:28:54;;;;;;;;;;;19.60;45.10;;;;;;5074104;28;20007;-65
2022/02/16 11:31:27;;;;;;;;;;;19.60;45.10;;;;;;5083281;28;19998;-65
2022/02/16 11:34:11;;;;;;;;;;;19.60;45.10;;;;;;5078360;28;19962;-65
2022/02/16 11:36:54;;;;;;;;;;;19.60;45.10;;;;;;5077209;28;19912;-66
2022/02/16 11:39:39;;;;;;;;;;;19.60;45.20;;;;;;5072523;28;19967;-65
2022/02/16 11:42:05;;;;;;;;;;;19.60;45.10;;;;;;5082404;28;20423;-64
2022/02/16 11:44:49;;;;;;;;;;;19.70;45.00;;;;;;5075349;28;20033;-64
2022/02/16 11:47:33;;;;;;;;;;;19.70;45.00;;;;;;5093056;28;20006;-65
2022/02/16 11:49:59;;;;;;;;;;;19.70;45.20;;;;;;5085637;28;19916;-64
2022/02/16 11:52:39;;;;;;;;;;;19.70;45.00;;;;;;5092086;28;20364;-64
2022/02/16 11:55:23;;;;;;;;;;;19.70;45.00;;;;;;5075766;28;19908;-64
2022/02/16 11:57:51;;;;;;;;;;;19.70;45.00;;;;;;5090551;28;19924;-64
2022/02/16 12:00:20;;;;;;;;;;;19.70;45.00;;;;;;5076101;28;19928;-67
2022/02/16 12:02:55;;;;;;;;;;;19.70;45.00;;;;;;5092954;28;20280;-65
2022/02/16 12:05:39;;;;;;;;;;;19.80;44.90;;;;;;5095136;28;19919;-65
2022/02/16 12:08:20;;;;;;;;;;;19.80;44.90;;;;;;5095495;28;19991;-66
2022/02/16 12:10:51;;;;;;;;;;;19.70;44.90;;;;;;5090730;28;19912;-65
2022/02/16 12:13:23;;;;;;;;;;;19.70;44.90;;;;;;5081158;28;19939;-65
2022/02/16 12:15:54;;;;;;;;;;;19.70;45.00;;;;;;5082204;28;19916;-65
2022/02/16 12:18:19;;;;;;;;;;;19.70;45.00;;;;;;5074889;28;19991;-65
2022/02/16 12:20:47;;;;;;;;;;;19.70;44.90;;;;;;5085504;28;19971;-65
2022/02/16 12:23:12;;;;;;;;;;;19.70;45.00;;;;;;5091544;28;19916;-65
2022/02/16 12:25:38;;;;;;;;;;;19.70;44.90;;;;;;5094602;28;19916;-65
2022/02/16 12:28:04;;;;;;;;;;;19.70;44.90;;;;;;5083028;28;19953;-65
2022/02/16 12:30:40;;;;;;;;;;;19.80;44.90;;;;;;5081240;28;20003;-64
2022/02/16 12:33:19;;;;;;;;;;;19.80;44.90;;;;;;5079567;28;19912;-65
2022/02/16 12:35:45;;;;;;;;;;;19.80;44.90;;;;;;5082061;28;19955;-64
2022/02/16 12:38:11;;;;;;;;;;;19.80;45.00;;;;;;5094139;28;19959;-65
2022/02/16 12:40:37;;;;;;;;;;;19.80;45.00;;;;;;5094616;28;19920;-65
2022/02/16 12:43:09;;;;;;;;;;;19.80;45.00;;;;;;5094428;28;19915;-64
2022/02/16 12:45:36;;;;;;;;;;;19.80;45.00;;;;;;5084452;28;20010;-64
2022/02/16 12:48:01;;;;;;;;;;;19.80;45.00;;;;;;5093569;28;20374;-64
2022/02/16 12:50:28;;;;;;;;;;;19.80;45.00;;;;;;5094123;28;20004;-63
2022/02/16 12:52:58;;;;;;;;;;;19.80;45.20;;;;;;5094135;28;19938;-64
2022/02/16 12:55:24;;;;;;;;;;;19.80;45.00;;;;;;5094237;28;19931;-65
2022/02/16 12:57:53;;;;;;;;;;;19.80;44.90;;;;;;5093821;28;20424;-64
2022/02/16 13:03:03;;;;;;;;;;;19.80;45.10;;;;;;5094712;28;20383;-65
2022/02/16 13:05:36;;;;;;;;;;;19.80;45.00;;;;;;5094259;28;19920;-62
2022/02/16 13:08:02;;;;;;;;;;;19.80;45.00;;;;;;5093318;28;20234;-64
2022/02/16 13:10:29;;;;;;;;;;;19.90;45.00;;;;;;5093796;28;19912;-64
2022/02/16 13:12:54;;;;;;;;;;;19.80;45.00;;;;;;5094115;28;19908;-63
2022/02/16 13:15:20;;;;;;;;;;;19.90;45.00;;;;;;5093815;28;20003;-63
2022/02/16 13:17:52;;;;;;;;;;;19.80;45.10;;;;;;5093122;28;19918;-64
2022/02/16 13:20:34;;;;;;;;;;;19.90;45.10;;;;;;5093234;28;20511;-63
2022/02/16 13:23:01;;;;;;;;;;;19.90;45.00;;;;;;5075978;28;19947;-64
2022/02/16 13:25:28;;;;;;;;;;;19.80;45.10;;;;;;5093651;28;20374;-65
2022/02/16 13:27:54;;;;;;;;;;;19.90;45.10;;;;;;5085660;28;20447;-67
2022/02/16 13:30:21;;;;;;;;;;;19.90;45.00;;;;;;5093395;28;19920;-64
2022/02/16 13:32:52;;;;;;;;;;;19.90;45.10;;;;;;5093846;28;20002;-64
2022/02/16 13:35:20;;;;;;;;;;;19.90;45.10;;;;;;5075423;28;19920;-64
2022/02/16 13:37:55;;;;;;;;;;;19.90;45.10;;;;;;5090501;28;19960;-64
2022/02/16 13:40:21;;;;;;;;;;;19.90;45.10;;;;;;5074449;28;19920;-64
2022/02/16 13:42:55;;;;;;;;;;;19.90;45.10;;;;;;5093666;28;19912;-65
2022/02/16 13:45:27;;;;;;;;;;;19.90;45.30;;;;;;5093042;28;20451;-64
2022/02/16 13:47:52;;;;;;;;;;;19.90;45.10;;;;;;5074139;28;19923;-63
2022/02/16 13:50:32;;;;;;;;;;;19.90;45.20;;;;;;5091643;28;19920;-65
2022/02/16 13:52:58;;;;;;;;;;;19.90;45.20;;;;;;5091570;28;19921;-64
2022/02/16 13:55:23;;;;;;;;;;;19.90;45.30;;;;;;5092877;28;19912;-64
2022/02/16 13:57:50;;;;;;;;;;;19.90;45.20;;;;;;5092883;28;19912;-64
2022/02/16 14:00:20;;;;;;;;;;;19.90;45.20;;;;;;5092976;28;19979;-64
2022/02/16 14:03:04;;;;;;;;;;;19.90;45.10;;;;;;5093265;28;19912;-64
2022/02/16 14:05:29;;;;;;;;;;;19.90;45.20;;;;;;5092450;28;19912;-63
2022/02/16 14:07:55;;;;;;;;;;;20.00;45.20;;;;;;5083133;28;19912;-63
2022/02/16 14:10:21;;;;;;;;;;;20.00;45.20;;;;;;5086995;28;20403;-64
2022/02/16 14:12:46;;;;;;;;;;;20.00;45.40;;;;;;5092553;28;19908;-63
2022/02/16 14:15:11;;;;;;;;;;;20.00;45.20;;;;;;5085782;28;19920;-64
2022/02/16 14:17:37;;;;;;;;;;;19.90;45.20;;;;;;5074316;28;19919;-65